Language: 


Des rapports , des résumés tant et plus, au choix de chacun....


Données statistiques de la station
Quotidien Rapport Mai 9, 2017 Unités:  Anglais    Métrique   les deux
« Précédent Jour
Suivant Jour »
Quotidien Hebdomadaire Mensuel Annuel Actuel
  Haut: Bas: Moyen:
Température: 66.2 °F 36.9 °F 51.8 °F
Pt de rosée: 46.4 °F 32 °F 39 °F
Humidité: 98 % 36 % 65 %
Vitesse du vent: 13.6 mph 0 mph 4.7 mph
Rafales: 13.6 mph - -
Vent:- - SE
Pression: 30.2 in 29.1 in -
Précipitation: 0 in    
Historical Graphs
 
 
Données statistiques pour Mai 9, 2017
Heure Température Point de rosée Pression Vent Vitesse du vent Refales Humidité Pluie (taux horaire)
00:00 45.1 °F 42.8 °F 30.2 in NNW 5.6 mph 8.7 mph 89 % 0 in
00:05 45 °F 42.8 °F 30.2 in North 3.8 mph 8.7 mph 89 % 0 in
00:10 44.8 °F 42.8 °F 30.2 in North 2.9 mph 6.9 mph 89 % 0 in
00:15 44.8 °F 42.8 °F 30.2 in North 5.8 mph 6.5 mph 89 % 0 in
00:20 44.6 °F 42.8 °F 30.2 in North 3.8 mph 6.5 mph 89 % 0 in
00:25 44.4 °F 42.8 °F 30.2 in North 2 mph 6.5 mph 90 % 0 in
00:30 44.4 °F 42.8 °F 30.2 in North 2 mph 6.5 mph 90 % 0 in
00:31 44.2 °F 41 °F 30.2 in NNW 3.1 mph 6.5 mph 90 % 0 in
00:36 44.2 °F 41 °F 30.2 in North 3.8 mph 6.5 mph 90 % 0 in
00:41 44.2 °F 41 °F 30.2 in NW 3.8 mph 8.5 mph 90 % 0 in
00:46 44.1 °F 41 °F 30.2 in NNE 3.6 mph 8.5 mph 90 % 0 in
00:51 44.1 °F 42.8 °F 30.2 in NNE 4.7 mph 6.5 mph 91 % 0 in
00:56 44.1 °F 42.8 °F 30.2 in NW 3.8 mph 6.3 mph 91 % 0 in
01:01 43.9 °F 42.8 °F 30.2 in Calm   5.6 mph 91 % 0 in
01:06 43.7 °F 42.8 °F 30.2 in North 4.9 mph 6 mph 91 % 0 in
01:11 43.7 °F 42.8 °F 30.2 in North 3.4 mph 7.2 mph 92 % 0 in
01:16 43.7 °F 42.8 °F 30.2 in North 3.4 mph 7.2 mph 92 % 0 in
01:21 43.5 °F 41 °F 30.2 in North 4.5 mph 6 mph 92 % 0 in
01:26 43.5 °F 41 °F 30.2 in NNE 4.9 mph 5.8 mph 92 % 0 in
01:31 43.3 °F 41 °F 30.2 in North 4 mph 6.5 mph 92 % 0 in
01:36 43.3 °F 42.8 °F 30.2 in North 4 mph 7.2 mph 93 % 0 in
01:41 43.3 °F 42.8 °F 30.2 in North 6 mph 7.2 mph 93 % 0 in
01:47 43.3 °F 42.8 °F 30.2 in North 3.8 mph 7.4 mph 93 % 0 in
01:52 43.3 °F 42.8 °F 30.2 in North 4.9 mph 7.4 mph 93 % 0 in
01:57 43.3 °F 42.8 °F 30.2 in North 4 mph 7.8 mph 93 % 0 in
02:02 43.2 °F 42.8 °F 30.2 in NNE 2.9 mph 7.8 mph 93 % 0 in
02:07 43 °F 41 °F 30.2 in NNE 4.5 mph 7.2 mph 93 % 0 in
02:12 42.6 °F 41 °F 30.2 in NNE 3.8 mph 6 mph 93 % 0 in
02:17 42.4 °F 41 °F 30.2 in ENE 2.9 mph 5.6 mph 93 % 0 in
02:22 42.3 °F 41 °F 30.2 in NE 0.9 mph 5.6 mph 93 % 0 in
02:27 42.1 °F 41 °F 30.2 in NE 3.4 mph 5.4 mph 93 % 0 in
02:32 41.5 °F 41 °F 30.2 in NNE 1.6 mph 4.3 mph 93 % 0 in
02:37 41.5 °F 41 °F 30.2 in NNE 2.9 mph 4.3 mph 93 % 0 in
02:42 41.4 °F 39.2 °F 30.2 in Calm   4 mph 93 % 0 in
02:47 41.4 °F 39.2 °F 30.2 in North 3.1 mph 3.8 mph 93 % 0 in
02:52 41 °F 39.2 °F 30.2 in Calm   3.8 mph 93 % 0 in
02:58 40.8 °F 39.2 °F 30.2 in NE 3.1 mph 4 mph 94 % 0 in
03:02 40.5 °F 39.2 °F 30.2 in NE 3.6 mph 4 mph 94 % 0 in
03:08 40.5 °F 39.2 °F 30.2 in NE 3.8 mph 4.3 mph 94 % 0 in
03:12 40.5 °F 39.2 °F 30.2 in NNE 3.1 mph 4.3 mph 95 % 0 in
03:18 40.3 °F 39.2 °F 30.2 in NNE 2.7 mph 4.3 mph 95 % 0 in
03:23 40.3 °F 39.2 °F 30.2 in NNE 2.9 mph 4.3 mph 94 % 0 in
03:28 40.3 °F 39.2 °F 30.2 in North 3.4 mph 4.3 mph 95 % 0 in
03:33 40.3 °F 39.2 °F 30.2 in North 1.1 mph 5.6 mph 95 % 0 in
03:36 40.3 °F 39.2 °F 30.2 in NNE 4 mph 5.6 mph 95 % 0 in
03:41 40.1 °F 39.2 °F 30.2 in Calm   5.6 mph 95 % 0 in
03:46 39.9 °F 39.2 °F 30.2 in North 2.5 mph 4.3 mph 95 % 0 in
03:51 40.3 °F 39.2 °F 30.2 in NNE 4.9 mph 5.8 mph 96 % 0 in
03:56 40.5 °F 39.2 °F 30.2 in North 3.6 mph 5.8 mph 96 % 0 in
04:01 40.5 °F 39.2 °F 30.2 in North 2.9 mph 5.8 mph 96 % 0 in
04:06 40.5 °F 39.2 °F 30.2 in North 2.9 mph 5.8 mph 96 % 0 in
04:11 40.6 °F 39.2 °F 30.2 in North 3.8 mph 5.8 mph 96 % 0 in
04:16 40.5 °F 39.2 °F 30.2 in NNE 2.7 mph 5.8 mph 96 % 0 in
04:21 40.3 °F 39.2 °F 30.2 in NNE 1.3 mph 4 mph 96 % 0 in
04:26 40.3 °F 39.2 °F 30.2 in NE 3.6 mph 4.3 mph 96 % 0 in
04:31 40.1 °F 39.2 °F 30.2 in North 2.5 mph 4.3 mph 96 % 0 in
04:36 39.9 °F 39.2 °F 30.2 in Calm   5.4 mph 96 % 0 in
04:41 39.9 °F 39.2 °F 30.2 in Calm   5.4 mph 96 % 0 in
04:46 39.7 °F 39.2 °F 30.2 in NNE 2.5 mph 3.8 mph 96 % 0 in
04:51 39.6 °F 39.2 °F 30.2 in NNE 2.9 mph 4.3 mph 96 % 0 in
04:56 39.6 °F 39.2 °F 30.2 in NNW 3.1 mph 4.3 mph 96 % 0 in
05:01 39.4 °F 39.2 °F 30.2 in Calm   4 mph 96 % 0 in
05:06 39.4 °F 39.2 °F 30.2 in Calm   4 mph 96 % 0 in
05:11 39.2 °F 39.2 °F 30.2 in NNE 2.5 mph 3.4 mph 96 % 0 in
05:16 39 °F 39.2 °F 30.2 in Calm   3.4 mph 96 % 0 in
05:21 38.7 °F 37.4 °F 30.2 in Calm   2.7 mph 96 % 0 in
05:26 38.7 °F 37.4 °F 30.2 in Calm   2 mph 95 % 0 in
05:31 38.3 °F 37.4 °F 30.2 in ENE 2 mph 2 mph 95 % 0 in
05:36 37.9 °F 37.4 °F 30.2 in Calm   2 mph 95 % 0 in
05:41 37.8 °F 37.4 °F 30.2 in Calm     95 % 0 in
05:47 37.4 °F 37.4 °F 30.2 in Calm     95 % 0 in
05:52 37.2 °F 37.4 °F 30.2 in Calm     95 % 0 in
05:57 37 °F 37.4 °F 30.2 in Calm     95 % 0 in
06:02 37.2 °F 37.4 °F 30.2 in Calm   2 mph 96 % 0 in
06:07 37 °F 37.4 °F 30.2 in Calm   2 mph 96 % 0 in
06:12 36.9 °F 37.4 °F 30.2 in North 0.9 mph 1.6 mph 96 % 0 in
06:17 36.9 °F 37.4 °F 30.2 in Calm   1.6 mph 96 % 0 in
06:22 37.2 °F 37.4 °F 30.2 in Calm   1.6 mph 97 % 0 in
06:27 37.4 °F 37.4 °F 30.2 in Calm   3.4 mph 97 % 0 in
06:32 37.6 °F 37.4 °F 30.2 in NNE 2 mph 3.4 mph 97 % 0 in
06:37 37.8 °F 37.4 °F 30.2 in Calm   2.7 mph 98 % 0 in
06:42 37.9 °F 37.4 °F 30.2 in Calm   2 mph 98 % 0 in
06:47 38.5 °F 39.2 °F 30.2 in North 2.5 mph 3.6 mph 98 % 0 in
06:52 38.7 °F 39.2 °F 30.1 in Calm   3.6 mph 98 % 0 in
06:57 39 °F 39.2 °F 30.1 in North 2 mph 3.8 mph 98 % 0 in
07:02 39.7 °F 39.2 °F 30.1 in Calm   4 mph 98 % 0 in
07:07 40.3 °F 41 °F 30.1 in North 0.9 mph 4 mph 98 % 0 in
07:13 40.8 °F 41 °F 30.1 in Calm   3.6 mph 98 % 0 in
07:17 41.4 °F 41 °F 30.1 in North 2.7 mph 4 mph 98 % 0 in
07:23 41.9 °F 42.8 °F 30.1 in NE 2.7 mph 4.3 mph 98 % 0 in
07:28 42.4 °F 42.8 °F 30.1 in NNE 5.4 mph 5.6 mph 98 % 0 in
07:33 43 °F 42.8 °F 30.1 in NNE 1.6 mph 6.3 mph 97 % 0 in
07:38 43.7 °F 42.8 °F 30.1 in NNE 1.6 mph 6.3 mph 97 % 0 in
07:43 44.2 °F 42.8 °F 30.1 in NNE 2.7 mph 6.5 mph 96 % 0 in
07:45 44.6 °F 42.8 °F 30.1 in North 6.5 mph 6.5 mph 95 % 0 in
07:50 45.1 °F 42.8 °F 30.1 in NE 5.4 mph 7.4 mph 94 % 0 in
07:55 45.7 °F 44.6 °F 30.1 in ENE 3.4 mph 7.4 mph 94 % 0 in
08:01 46.4 °F 44.6 °F 30.1 in NNE 4.3 mph 5.8 mph 93 % 0 in
08:06 47.1 °F 46.4 °F 30.2 in NE 3.4 mph 5.4 mph 93 % 0 in
08:11 47.7 °F 46.4 °F 30.2 in North 3.8 mph 5.4 mph 92 % 0 in
08:16 48.4 °F 46.4 °F 30.2 in ENE 2.9 mph 5.8 mph 91 % 0 in
08:21 48.9 °F 46.4 °F 30.2 in ENE 2.7 mph 5.8 mph 90 % 0 in
08:26 49.6 °F 46.4 °F 30.2 in NE 3.6 mph 6 mph 88 % 0 in
08:31 50.2 °F 46.4 °F 30.2 in NE 3.4 mph 6 mph 87 % 0 in
08:36 50.4 °F 46.4 °F 30.2 in NE 5.8 mph 6 mph 86 % 0 in
08:41 50.7 °F 46.4 °F 30.2 in ENE 4.7 mph 6.5 mph 84 % 0 in
08:46 50.9 °F 46.4 °F 30.2 in ENE 3.4 mph 6.5 mph 82 % 0 in
08:51 51.4 °F 46.4 °F 30.2 in East 1.1 mph 6.5 mph 82 % 0 in
08:56 52 °F 46.4 °F 30.2 in NNE 3.8 mph 5.6 mph 80 % 0 in
09:01 52.3 °F 44.6 °F 30.2 in NE 3.8 mph 7.8 mph 76 % 0 in
09:06 52.7 °F 46.4 °F 30.2 in ENE 4 mph 7.8 mph 75 % 0 in
09:11 52.5 °F 44.6 °F 30.2 in NE 6.3 mph 7.8 mph 73 % 0 in
09:16 52.9 °F 44.6 °F 30.2 in NNE 5.4 mph 7.8 mph 74 % 0 in
09:21 52.9 °F 42.8 °F 30.1 in NNE 6.3 mph 8.9 mph 68 % 0 in
09:26 52.9 °F 42.8 °F 30.1 in NE 6.3 mph 8.9 mph 68 % 0 in
09:31 53.1 °F 42.8 °F 30.1 in North 4.9 mph 8.7 mph 66 % 0 in
09:36 53.2 °F 42.8 °F 30.2 in NNE 4.3 mph 8.5 mph 67 % 0 in
09:42 53.6 °F 42.8 °F 30.2 in NE 6.7 mph 8.1 mph 65 % 0 in
09:47 54 °F 42.8 °F 30.2 in North 7.8 mph 8.7 mph 63 % 0 in
09:52 54.7 °F 42.8 °F 30.2 in East 3.4 mph 8.7 mph 62 % 0 in
09:57 55 °F 42.8 °F 30.2 in East 2.5 mph 8.1 mph 60 % 0 in
10:02 55.8 °F 42.8 °F 30.2 in NE 2 mph 7.2 mph 60 % 0 in
10:07 55.8 °F 41 °F 30.2 in ENE 4.9 mph 8.1 mph 57 % 0 in
10:12 55.8 °F 41 °F 30.2 in North 5.6 mph 8.1 mph 56 % 0 in
10:17 55.6 °F 41 °F 30.2 in ENE 4.9 mph 8.1 mph 56 % 0 in
10:22 56.5 °F 42.8 °F 30.2 in North 4.9 mph 8.1 mph 57 % 0 in
10:27 56.8 °F 41 °F 30.2 in East 4.9 mph 5.6 mph 56 % 0 in
10:32 57.2 °F 41 °F 30.2 in ENE 1.3 mph 5.6 mph 54 % 0 in
10:37 57.6 °F 42.8 °F 30.1 in NNE 5.8 mph 7.4 mph 54 % 0 in
10:42 57.2 °F 41 °F 30.1 in NE 6 mph 7.8 mph 53 % 0 in
10:47 57.2 °F 39.2 °F 30.1 in East 4.3 mph 8.5 mph 51 % 0 in
10:52 57.2 °F 39.2 °F 30 in North 6.3 mph 8.5 mph 49 % 0 in
10:57 57.9 °F 39.2 °F 30 in NNE 2.2 mph 7.8 mph 49 % 0 in
11:02 57.9 °F 39.2 °F 30 in North 6.3 mph 7.8 mph 48 % 0 in
11:07 58.5 °F 39.2 °F 30.1 in ENE 6.5 mph 7.8 mph 49 % 0 in
11:12 58.5 °F 39.2 °F 30.1 in North 3.1 mph 7.4 mph 49 % 0 in
11:17 58.5 °F 39.2 °F 30.1 in NE 7.6 mph 9.8 mph 48 % 0 in
11:22 58.8 °F 41 °F 30.1 in ENE 4 mph 9.8 mph 49 % 0 in
11:27 58.5 °F 39.2 °F 30.1 in NE 5.8 mph 8.7 mph 47 % 0 in
11:32 58.6 °F 39.2 °F 30.1 in NNE 7.4 mph 8.7 mph 48 % 0 in
11:37 59.2 °F 39.2 °F 30 in ENE 4 mph 7.4 mph 47 % 0 in
11:43 59.4 °F 39.2 °F 30 in ENE 2.9 mph 7.4 mph 47 % 0 in
11:48 60.1 °F 41 °F 30 in ENE 4.3 mph 7.4 mph 47 % 0 in
11:53 60.6 °F 41 °F 29.6 in NW 4.3 mph 7.4 mph 46 % 0 in
11:58 60.8 °F 39.2 °F 29.6 in NNE 4.3 mph 6.3 mph 45 % 0 in
12:03 60.4 °F 39.2 °F 29.6 in North 4.9 mph 8.7 mph 45 % 0 in
12:08 60.4 °F 39.2 °F 29.6 in Calm   8.7 mph 45 % 0 in
12:13 60.8 °F 39.2 °F 29.6 in North 6.9 mph 8.1 mph 45 % 0 in
12:18 61.3 °F 39.2 °F 29.6 in NNE 8.7 mph 8.7 mph 44 % 0 in
12:24 60.6 °F 37.4 °F 29.6 in ENE 8.9 mph 8.9 mph 43 % 0 in
12:29 60.6 °F 37.4 °F 29.6 in NNW 4.3 mph 10.1 mph 43 % 0 in
12:34 61.3 °F 39.2 °F 29.6 in NNE 7.6 mph 9.6 mph 43 % 0 in
12:39 61.3 °F 39.2 °F 29.6 in ENE 2.9 mph 8.5 mph 43 % 0 in
12:44 61 °F 37.4 °F 29.6 in NNE 4.3 mph 8.5 mph 42 % 0 in
12:49 61.3 °F 39.2 °F 29.6 in ENE 2 mph 8.7 mph 43 % 0 in
12:54 61.9 °F 39.2 °F 29.6 in NE 6.3 mph 8.7 mph 43 % 0 in
12:59 62.2 °F 39.2 °F 29.6 in East 5.4 mph 7.8 mph 43 % 0 in
13:04 62.2 °F 39.2 °F 29.6 in East 5.4 mph 7.8 mph 42 % 0 in
13:09 62.1 °F 37.4 °F 29.6 in ENE 2 mph 7.8 mph 41 % 0 in
13:14 62.8 °F 39.2 °F 29.6 in NE 3.8 mph 7.6 mph 41 % 0 in
13:19 63 °F 39.2 °F 29.6 in NNE 5.6 mph 8.1 mph 41 % 0 in
13:24 63.5 °F 39.2 °F 29.6 in North 3.6 mph 8.1 mph 40 % 0 in
13:29 63 °F 39.2 °F 29.6 in NE 5.6 mph 8.7 mph 41 % 0 in
13:34 62.6 °F 37.4 °F 29.6 in NE 5.4 mph 9.8 mph 40 % 0 in
13:39 62.8 °F 37.4 °F 29.9 in North 4.7 mph 10.1 mph 39 % 0 in
13:44 63.9 °F 39.2 °F 29.9 in West 4 mph 10.1 mph 41 % 0 in
13:49 64.4 °F 39.2 °F 29.9 in West 5.6 mph 7.6 mph 40 % 0 in
13:54 63.3 °F 37.4 °F 29.9 in NE 8.7 mph 10.3 mph 39 % 0 in
14:00 63.5 °F 39.2 °F 29.9 in ESE 1.1 mph 10.3 mph 39 % 0 in
14:05 63.3 °F 37.4 °F 29.9 in North 3.8 mph 10.1 mph 38 % 0 in
14:10 64.6 °F 39.2 °F 29.7 in ENE 0.9 mph 10.1 mph 39 % 0 in
14:15 64.2 °F 39.2 °F 29.7 in NNW 3.6 mph 9.2 mph 39 % 0 in
14:20 64.8 °F 39.2 °F 29.7 in North 2.9 mph 9.2 mph 38 % 0 in
14:25 65.3 °F 41 °F 29.8 in NNE 5.4 mph 5.4 mph 39 % 0 in
14:30 64.4 °F 37.4 °F 29.8 in North 5.4 mph 9.8 mph 37 % 0 in
14:35 64.2 °F 37.4 °F 29.8 in SE 5.6 mph 9.8 mph 38 % 0 in
14:40 64.4 °F 37.4 °F 29.9 in NNE 4.9 mph 7.6 mph 38 % 0 in
14:41 64.4 °F 37.4 °F 29.9 in NNE 7.4 mph 7.6 mph 38 % 0 in
14:46 64.8 °F 39.2 °F 29.9 in NE 4 mph 7.6 mph 38 % 0 in
14:51 64.8 °F 39.2 °F 29.9 in ENE 2.9 mph 7.8 mph 38 % 0 in
14:56 64.8 °F 39.2 °F 29.9 in NE 2.9 mph 7.8 mph 38 % 0 in
15:01 65.5 °F 39.2 °F 29.9 in NE 9.4 mph 9.4 mph 38 % 0 in
15:06 64.9 °F 39.2 °F 29.6 in NNE 4 mph 9.4 mph 38 % 0 in
15:11 64.9 °F 39.2 °F 29.6 in ENE 4.9 mph 8.5 mph 38 % 0 in
15:16 65.1 °F 37.4 °F 29.6 in NE 6 mph 7.4 mph 37 % 0 in
15:21 64.9 °F 39.2 °F 29.8 in NE 7.6 mph 7.6 mph 38 % 0 in
15:26 64.9 °F 39.2 °F 29.8 in East 8.5 mph 8.5 mph 38 % 0 in
15:31 65.3 °F 39.2 °F 29.8 in NNE 2.7 mph 8.5 mph 38 % 0 in
15:36 65.3 °F 39.2 °F 29.8 in North 6.5 mph 8.7 mph 37 % 0 in
15:41 65.5 °F 39.2 °F 29.8 in NNE 6.3 mph 8.7 mph 37 % 0 in
15:46 65.5 °F 39.2 °F 29.8 in NE 5.4 mph 7.8 mph 37 % 0 in
15:51 65.5 °F 39.2 °F 29.6 in NE 4.9 mph 8.9 mph 38 % 0 in
15:56 65.8 °F 39.2 °F 29.6 in ENE 3.4 mph 8.9 mph 37 % 0 in
16:00 66.2 °F 39.2 °F 29.6 in North 3.4 mph 6.9 mph 37 % 0 in
16:05 66.2 °F 39.2 °F 29.6 in ENE 6.5 mph 7.6 mph 37 % 0 in
16:10 65.8 °F 39.2 °F 29.6 in NE 3.8 mph 8.7 mph 37 % 0 in
16:15 65.7 °F 37.4 °F 29.6 in NNW 6 mph 9.8 mph 36 % 0 in
16:20 65.3 °F 37.4 °F 29.6 in North 4 mph 9.8 mph 36 % 0 in
16:25 65.7 °F 39.2 °F 29.7 in NNE 7.6 mph 8.5 mph 37 % 0 in
16:30 65.5 °F 39.2 °F 29.7 in NE 7.8 mph 9.8 mph 37 % 0 in
16:35 65.8 °F 39.2 °F 29.7 in East 2.5 mph 9.8 mph 38 % 0 in
16:40 64.8 °F 39.2 °F 29.7 in ENE 7.8 mph 10.5 mph 38 % 0 in
16:45 65.1 °F 39.2 °F 29.7 in NE 3.6 mph 10.5 mph 38 % 0 in
16:50 65.1 °F 39.2 °F 29.7 in NNE 4.3 mph 10.1 mph 38 % 0 in
16:55 64.4 °F 37.4 °F 29.7 in North 5.4 mph 11.2 mph 38 % 0 in
16:57 64.4 °F 37.4 °F 29.7 in NNW 6.5 mph 11.2 mph 38 % 0 in
17:02 63.3 °F 37.4 °F 29.7 in NE 10.5 mph 10.5 mph 39 % 0 in
17:07 63.9 °F 39.2 °F 29.6 in NNW 8.7 mph 10.5 mph 39 % 0 in
17:12 63.1 °F 37.4 °F 29.6 in NNE 5.8 mph 10.7 mph 39 % 0 in
17:17 63 °F 39.2 °F 29.6 in NNE 8.7 mph 10.7 mph 40 % 0 in
17:22 64 °F 39.2 °F 29.6 in NNW 7.6 mph 10.7 mph 40 % 0 in
17:27 63.9 °F 39.2 °F 29.6 in ENE 9.8 mph 12.8 mph 39 % 0 in
17:32 64.4 °F 39.2 °F 29.6 in North 2.9 mph 12.8 mph 39 % 0 in
17:37 64.2 °F 39.2 °F 29.5 in North 5.6 mph 10.3 mph 40 % 0 in
17:42 63.9 °F 39.2 °F 29.5 in NE 11 mph 13 mph 41 % 0 in
17:47 62.1 °F 37.4 °F 29.5 in North 8.5 mph 13 mph 41 % 0 in
17:52 60.6 °F 37.4 °F 29.6 in NE 7.8 mph 12.3 mph 41 % 0 in
17:57 60.8 °F 37.4 °F 29.6 in NE 6 mph 10.1 mph 41 % 0 in
18:02 61.7 °F 37.4 °F 29.6 in NNE 7.6 mph 10.1 mph 41 % 0 in
18:07 61.9 °F 39.2 °F 29.6 in ENE 8.1 mph 12.3 mph 42 % 0 in
18:12 61.9 °F 39.2 °F 29.6 in NE 11 mph 12.8 mph 42 % 0 in
18:17 62.4 °F 39.2 °F 29.6 in North 5.8 mph 12.8 mph 42 % 0 in
18:22 62.2 °F 39.2 °F 29.6 in ENE 6 mph 10.7 mph 42 % 0 in
18:27 61.9 °F 37.4 °F 29.6 in NE 8.5 mph 11.9 mph 41 % 0 in
18:32 61.5 °F 37.4 °F 29.6 in ENE 7.6 mph 11.9 mph 42 % 0 in
18:37 59.4 °F 37.4 °F 29.5 in NE 9.8 mph 12.8 mph 43 % 0 in
18:42 58.3 °F 37.4 °F 29.5 in NNW 10.3 mph 12.8 mph 44 % 0 in
18:48 59.5 °F 37.4 °F 29.5 in ENE 9.8 mph 11.2 mph 44 % 0 in
18:53 58.6 °F 37.4 °F 29.6 in NE 7.8 mph 11 mph 45 % 0 in
18:58 59.7 °F 37.4 °F 29.6 in NNE 7.8 mph 11 mph 44 % 0 in
19:03 59.5 °F 37.4 °F 29.6 in NE 7.4 mph 12.5 mph 44 % 0 in
19:08 59.7 °F 37.4 °F 29.5 in NE 8.5 mph 12.5 mph 44 % 0 in
19:13 59.4 °F 37.4 °F 29.5 in NE 10.3 mph 13 mph 44 % 0 in
19:18 59.2 °F 37.4 °F 29.5 in NNE 8.7 mph 13 mph 44 % 0 in
19:23 59.2 °F 37.4 °F 29.4 in NE 10.5 mph 12.1 mph 44 % 0 in
19:28 58.8 °F 37.4 °F 29.4 in NE 8.5 mph 11.2 mph 45 % 0 in
19:33 58.8 °F 37.4 °F 29.4 in NNE 10.1 mph 11.2 mph 44 % 0 in
19:38 58.1 °F 37.4 °F 29.5 in NE 9.8 mph 12.8 mph 44 % 0 in
19:39 58.1 °F 37.4 °F 29.5 in NNE 12.1 mph 12.8 mph 44 % 0 in
19:44 58.1 °F 37.4 °F 29.5 in NE 8.5 mph 12.8 mph 44 % 0 in
19:49 57.9 °F 37.4 °F 29.5 in NNE 9.4 mph 12.8 mph 44 % 0 in
19:54 57.2 °F 35.6 °F 29.5 in NE 13.6 mph 13.6 mph 44 % 0 in
19:59 57 °F 37.4 °F 29.5 in NNE 12.1 mph 13.6 mph 45 % 0 in
20:04 56.5 °F 35.6 °F 29.5 in NNW 13 mph 13.6 mph 45 % 0 in
20:09 55.9 °F 35.6 °F 29.4 in NNE 10.7 mph 13 mph 45 % 0 in
20:14 55.2 °F 35.6 °F 29.4 in ENE 10.1 mph 12.8 mph 46 % 0 in
20:19 54.9 °F 35.6 °F 29.4 in NNE 10.3 mph 12.3 mph 46 % 0 in
20:24 54.5 °F 35.6 °F 29.4 in NE 7.2 mph 12.3 mph 46 % 0 in
20:29 54.3 °F 33.8 °F 29.4 in NE 8.7 mph 12.3 mph 46 % 0 in
20:34 54 °F 33.8 °F 29.4 in NE 7.6 mph 11 mph 46 % 0 in
20:39 53.6 °F 33.8 °F 29.4 in NE 7.8 mph 10.5 mph 47 % 0 in
20:44 53.1 °F 33.8 °F 29.4 in NE 8.7 mph 11 mph 47 % 0 in
20:49 52.9 °F 33.8 °F 29.4 in NNE 8.7 mph 11 mph 47 % 0 in
20:54 52.5 °F 33.8 °F 29.4 in NNE 7.8 mph 11.4 mph 47 % 0 in
20:59 52.2 °F 33.8 °F 29.4 in North 8.5 mph 11.4 mph 48 % 0 in
21:04 51.8 °F 33.8 °F 29.4 in NNE 7.8 mph 9.8 mph 48 % 0 in
21:10 51.6 °F 33.8 °F 29.2 in NNE 7.6 mph 10.3 mph 48 % 0 in
21:15 51.3 °F 33.8 °F 29.2 in NNE 8.1 mph 10.3 mph 49 % 0 in
21:20 50.9 °F 33.8 °F 29.2 in NE 7.4 mph 9.8 mph 49 % 0 in
21:25 50.5 °F 32 °F 29.4 in NE 6.3 mph 9.8 mph 49 % 0 in
21:30 50.2 °F 32 °F 29.4 in NE 6.7 mph 8.7 mph 50 % 0 in
21:35 50 °F 32 °F 29.4 in NE 5.4 mph 10.1 mph 50 % 0 in
21:40 49.6 °F 32 °F 29.4 in NE 7.4 mph 10.1 mph 51 % 0 in
21:45 49.5 °F 33.8 °F 29.4 in NNE 7.6 mph 8.7 mph 52 % 0 in
21:50 49.1 °F 33.8 °F 29.4 in NE 5.4 mph 8.7 mph 52 % 0 in
21:55 48.7 °F 32 °F 29.4 in NNE 4.3 mph 7.6 mph 52 % 0 in
22:00 48 °F 33.8 °F 29.4 in NE 3.4 mph 6.3 mph 54 % 0 in
22:05 47.7 °F 32 °F 29.4 in ENE 4.9 mph 5.4 mph 54 % 0 in
22:10 47.3 °F 32 °F 29.3 in NNE 4 mph 5.8 mph 55 % 0 in
22:15 47.1 °F 32 °F 29.3 in North 3.8 mph 5.8 mph 56 % 0 in
22:20 46.9 °F 33.8 °F 29.3 in NE 4.9 mph 6.5 mph 57 % 0 in
22:25 46.8 °F 33.8 °F 29.3 in NE 6.5 mph 6.5 mph 59 % 0 in
22:30 46.6 °F 33.8 °F 29.3 in Calm   6.5 mph 60 % 0 in
22:32 46.6 °F 33.8 °F 29.3 in NE 3.6 mph 6.5 mph 60 % 0 in
22:37 46 °F 33.8 °F 29.1 in Calm   6 mph 60 % 0 in
22:42 45.7 °F 33.8 °F 29.1 in Calm   4.3 mph 60 % 0 in
22:47 45.3 °F 33.8 °F 29.1 in NNE 4.9 mph 5.4 mph 62 % 0 in
22:52 45.1 °F 33.8 °F 29.1 in NE 4.3 mph 6 mph 63 % 0 in
22:57 45 °F 33.8 °F 29.1 in NNE 4.3 mph 6 mph 65 % 0 in
23:02 44.8 °F 33.8 °F 29.1 in North 2.7 mph 6 mph 64 % 0 in
23:07 44.6 °F 33.8 °F 29.2 in NE 4.9 mph 6 mph 66 % 0 in
23:12 44.4 °F 35.6 °F 29.2 in East 3.6 mph 5.8 mph 69 % 0 in
23:18 44.4 °F 35.6 °F 29.2 in NNE 5.6 mph 6.7 mph 70 % 0 in
23:23 44.4 °F 35.6 °F 29.2 in NNE 4.3 mph 6.7 mph 71 % 0 in
23:24 44.4 °F 35.6 °F 29.2 in NE 4 mph 6.7 mph 71 % 0 in
23:29 44.2 °F 35.6 °F 29.2 in NE 5.4 mph 6 mph 72 % 0 in
23:34 44.1 °F 37.4 °F 29.2 in North 3.4 mph 6 mph 74 % 0 in
23:39 43.9 °F 35.6 °F 29.2 in NNE 4.3 mph 5.8 mph 73 % 0 in
23:44 43.5 °F 35.6 °F 29.2 in NNE 2.9 mph 5.4 mph 73 % 0 in
23:45 43.7 °F 35.6 °F 29.2 in NNE 2.9 mph 5.4 mph 73 % 0 in
23:50 43.5 °F 35.6 °F 29.2 in NNE 3.8 mph 4.9 mph 73 % 0 in
23:55 43.2 °F 37.4 °F 29.1 in NE 2.9 mph 5.4 mph 75 % 0 in
Le Gheer Warneton
Courtoisie de Weather Underground - 2.25 mb

Mise a jour : 16-12-17 12:12:11
Généré par Cumulus 1.9.4 (1099)